Time;durP1;ratioP1;P1;durP2;ratioP2;P2;SDS_P1;SDS_P2;PMS_P1;PMS_P2;Temp;Humidity;BMP_temperature;BMP_pressure;BME280_temperature;BME280_humidity;BME280_pressure;Samples;Min_cycle;Max_cycle;Signal;HPM_P1;HPM_P2
2022/01/07 00:00:39;;;;;;;8.77;4.50;;;;;;;2.80;83.33;101371.28;5084621;28;20020;-72
2022/01/07 00:03:05;;;;;;;10.75;5.03;;;;;;;2.82;83.49;101366.69;5070181;28;20094;-73
2022/01/07 00:05:31;;;;;;;10.18;4.18;;;;;;;2.82;83.61;101379.84;5068460;28;20500;-73
2022/01/07 00:07:57;;;;;;;10.18;3.80;;;;;;;2.81;82.63;101367.66;5088910;28;20063;-73
2022/01/07 00:10:22;;;;;;;12.77;4.75;;;;;;;2.85;82.37;101362.97;5087668;28;20052;-72
2022/01/07 00:12:49;;;;;;;7.95;4.20;;;;;;;2.88;82.22;101364.50;5087588;28;20047;-73
2022/01/07 00:15:16;;;;;;;9.23;4.40;;;;;;;2.90;82.02;101352.03;5088927;28;20024;-72
2022/01/07 00:17:42;;;;;;;14.25;5.28;;;;;;;2.92;82.74;101365.91;5089023;28;20048;-72
2022/01/07 00:20:09;;;;;;;12.30;4.53;;;;;;;2.90;82.81;101357.28;5088956;28;20028;-73
2022/01/07 00:22:39;;;;;;;8.50;3.65;;;;;;;2.89;83.25;101361.72;5087552;28;20100;-73
2022/01/07 00:25:06;;;;;;;12.93;5.35;;;;;;;2.88;83.34;101357.41;5088883;28;20089;-73
2022/01/07 00:27:31;;;;;;;15.25;4.68;;;;;;;2.85;84.03;101347.97;5088728;28;20943;-73
2022/01/07 00:29:57;;;;;;;10.50;4.53;;;;;;;2.81;84.14;101359.75;5088900;28;20069;-73
2022/01/07 00:32:23;;;;;;;14.95;4.32;;;;;;;2.76;84.69;101348.78;5088734;28;20032;-73
2022/01/07 00:34:48;;;;;;;10.48;4.45;;;;;;;2.70;85.74;101332.69;5088785;28;20028;-73
2022/01/07 00:37:14;;;;;;;15.18;5.63;;;;;;;2.64;85.67;101326.97;5092802;28;20035;-72
2022/01/07 00:39:39;;;;;;;10.43;3.08;;;;;;;2.64;85.73;101334.06;5087441;28;20127;-73
2022/01/07 00:42:05;;;;;;;8.35;3.40;;;;;;;2.60;85.38;101328.22;5083599;28;20075;-73
2022/01/07 00:44:30;;;;;;;8.38;5.03;;;;;;;2.61;85.96;101324.63;5083708;28;20032;-72
2022/01/07 00:46:56;;;;;;;9.00;3.78;;;;;;;2.61;86.33;101313.25;5092335;28;20470;-73
2022/01/07 00:49:22;;;;;;;10.35;4.18;;;;;;;2.61;86.82;101315.88;5092243;28;20032;-72
2022/01/07 00:51:51;;;;;;;10.77;4.18;;;;;;;2.57;86.69;101303.97;5088282;28;20296;-72
2022/01/07 00:54:17;;;;;;;11.55;3.92;;;;;;;2.57;87.42;101311.88;5091750;28;20028;-72
2022/01/07 00:56:43;;;;;;;12.70;3.95;;;;;;;2.50;88.31;101298.38;5077464;28;20459;-72
2022/01/07 00:59:08;;;;;;;11.52;4.82;;;;;;;2.43;88.51;101297.25;5072780;28;20029;-72
2022/01/07 01:01:34;;;;;;;10.65;4.78;;;;;;;2.40;88.64;101290.44;5072769;28;20383;-73
2022/01/07 01:04:00;;;;;;;8.27;3.80;;;;;;;2.34;88.89;101284.91;5072737;28;20043;-73
2022/01/07 01:06:25;;;;;;;11.20;4.38;;;;;;;2.31;89.52;101274.63;5072657;28;20028;-73
2022/01/07 01:08:51;;;;;;;9.13;3.65;;;;;;;2.28;89.24;101272.25;5072616;28;20047;-72
2022/01/07 01:11:16;;;;;;;13.52;3.88;;;;;;;2.27;89.37;101271.41;5072353;28;20067;-72
2022/01/07 01:13:42;;;;;;;15.25;5.07;;;;;;;2.27;89.77;101268.78;5072556;28;20028;-72
2022/01/07 01:16:07;;;;;;;10.10;3.72;;;;;;;2.23;89.80;101262.13;5072487;28;20032;-73
2022/01/07 01:18:33;;;;;;;9.30;4.15;;;;;;;2.29;89.23;101263.41;5086845;28;20039;-73
2022/01/07 01:20:59;;;;;;;9.05;4.20;;;;;;;2.28;89.86;101256.44;5091516;28;20024;-72
2022/01/07 01:23:24;;;;;;;9.85;3.53;;;;;;;2.30;89.08;101254.53;5090678;28;20035;-72
2022/01/07 01:25:51;;;;;;;8.10;3.30;;;;;;;2.29;89.84;101245.81;5072276;28;20036;-72
2022/01/07 01:28:16;;;;;;;9.70;3.42;;;;;;;2.32;89.35;101231.56;5072364;28;20048;-72
2022/01/07 01:30:42;;;;;;;10.13;3.88;;;;;;;2.35;89.13;101240.00;5077698;28;20563;-72
2022/01/07 01:33:07;;;;;;;13.35;3.58;;;;;;;2.37;88.79;101239.88;5091433;28;20427;-73
2022/01/07 01:35:33;;;;;;;9.85;4.03;;;;;;;2.39;88.76;101224.78;5091364;28;20026;-73
2022/01/07 01:37:58;;;;;;;7.78;3.15;;;;;;;2.35;88.61;101223.38;5091299;28;20035;-72
2022/01/07 01:40:24;;;;;;;6.90;3.65;;;;;;;2.42;88.58;101227.16;5091263;28;20433;-72
2022/01/07 01:42:53;;;;;;;7.97;3.97;;;;;;;2.42;88.25;101219.25;5091335;28;20146;-73
2022/01/07 01:45:20;;;;;;;9.60;4.05;;;;;;;2.41;88.49;101226.31;5089994;28;20082;-73
2022/01/07 01:47:46;;;;;;;14.80;5.43;;;;;;;2.48;87.58;101229.25;5090889;28;20028;-72
2022/01/07 01:50:13;;;;;;;5.68;3.17;;;;;;;2.49;88.14;101209.88;5091104;28;20028;-72
2022/01/07 01:52:44;;;;;;;10.52;4.85;;;;;;;2.48;87.86;101202.91;5091103;28;20035;-72
2022/01/07 01:55:09;;;;;;;10.43;4.55;;;;;;;2.49;87.27;101215.13;5090810;28;20106;-72
2022/01/07 01:57:35;;;;;;;5.53;2.92;;;;;;;2.52;87.10;101199.06;5091015;28;20119;-72
2022/01/07 02:00:06;;;;;;;21.98;5.50;;;;;;;2.48;86.89;101187.13;5090923;28;20032;-72
2022/01/07 02:02:31;;;;;;;6.43;3.50;;;;;;;2.55;86.91;101182.97;5071436;28;20086;-73
2022/01/07 02:04:57;;;;;;;7.55;3.63;;;;;;;2.56;87.15;101168.00;5071548;28;20037;-72
2022/01/07 02:07:25;;;;;;;9.88;3.35;;;;;;;2.52;87.12;101164.84;5071498;28;20510;-72
2022/01/07 02:09:51;;;;;;;18.25;5.25;;;;;;;2.54;86.74;101178.69;5076980;28;20035;-74
2022/01/07 02:12:17;;;;;;;17.55;6.43;;;;;;;2.56;87.74;101170.66;5071228;28;20033;-73
2022/01/07 02:14:56;;;;;;;9.90;3.97;;;;;;;2.53;86.77;101158.59;5071321;28;20039;-72
2022/01/07 02:17:22;;;;;;;5.32;3.17;;;;;;;2.62;86.52;101170.94;5089003;28;20421;-72
2022/01/07 02:19:49;;;;;;;9.80;3.00;;;;;;;2.64;86.92;101162.88;5090495;28;20028;-72
2022/01/07 02:22:17;;;;;;;8.93;3.15;;;;;;;2.66;86.11;101184.66;5090376;28;20375;-73
2022/01/07 02:24:47;;;;;;;8.70;3.25;;;;;;;2.68;85.68;101169.56;5090355;28;20032;-73
2022/01/07 02:27:14;;;;;;;8.93;2.88;;;;;;;2.70;85.86;101154.47;5090331;28;20092;-72
2022/01/07 02:29:41;;;;;;;7.10;3.17;;;;;;;2.68;86.12;101158.19;5071012;28;20082;-73
2022/01/07 02:32:07;;;;;;;6.20;2.78;;;;;;;2.78;86.01;101154.59;5090048;28;20081;-72
2022/01/07 02:34:33;;;;;;;7.13;2.45;;;;;;;2.77;85.58;101152.91;5090275;28;20032;-73
2022/01/07 02:36:58;;;;;;;8.43;2.78;;;;;;;2.77;85.06;101144.19;5080885;28;20131;-72
2022/01/07 02:39:24;;;;;;;5.00;2.35;;;;;;;2.79;86.10;101150.97;5070722;28;20059;-72
2022/01/07 02:41:49;;;;;;;18.52;4.03;;;;;;;2.75;85.91;101141.72;5073759;28;20054;-73
2022/01/07 02:44:15;;;;;;;8.07;3.42;;;;;;;2.79;86.02;101142.25;5090258;28;20539;-72
2022/01/07 02:46:41;;;;;;;8.95;4.55;;;;;;;2.79;86.14;101145.72;5088752;28;20085;-72
2022/01/07 02:49:10;;;;;;;6.68;3.10;;;;;;;2.79;86.89;101158.06;5089962;28;20024;-72
2022/01/07 02:51:37;;;;;;;10.07;2.65;;;;;;;2.76;87.52;101146.00;5088522;28;20456;-72
2022/01/07 02:54:03;;;;;;;6.13;2.97;;;;;;;2.72;88.23;101139.31;5089975;28;20074;-72
2022/01/07 02:56:28;;;;;;;13.57;3.80;;;;;;;2.69;88.06;101141.41;5089995;28;20056;-72
2022/01/07 02:58:53;;;;;;;5.72;2.90;;;;;;;2.63;88.71;101138.38;5089096;28;20027;-73
2022/01/07 03:01:19;;;;;;;7.75;3.28;;;;;;;2.64;89.06;101133.94;5089862;28;20024;-72
2022/01/07 03:03:44;;;;;;;7.93;3.22;;;;;;;2.66;89.09;101128.53;5089761;28;20035;-72
2022/01/07 03:06:10;;;;;;;7.10;3.45;;;;;;;2.59;89.85;101126.47;5070594;28;20089;-72
2022/01/07 03:08:35;;;;;;;8.02;3.53;;;;;;;2.58;90.04;101124.78;5088382;28;20085;-73
2022/01/07 03:11:00;;;;;;;6.68;3.90;;;;;;;2.54;90.22;101118.16;5079503;28;20074;-72
2022/01/07 03:13:26;;;;;;;10.00;3.58;;;;;;;2.49;90.34;101114.22;5068982;28;20040;-72
2022/01/07 03:15:51;;;;;;;6.07;2.97;;;;;;;2.42;91.13;101109.53;5070268;28;20047;-73
2022/01/07 03:18:16;;;;;;;16.13;3.97;;;;;;;2.40;91.52;101111.47;5070147;28;20036;-73
2022/01/07 03:20:42;;;;;;;9.27;3.50;;;;;;;2.37;92.38;101109.09;5070278;28;20024;-73
2022/01/07 03:23:11;;;;;;;11.32;4.22;;;;;;;2.34;92.33;101106.75;5070282;28;20036;-73
2022/01/07 03:25:37;;;;;;;7.25;2.80;;;;;;;2.24;92.06;101099.81;5089426;28;20020;-73
2022/01/07 03:28:03;;;;;;;11.35;3.50;;;;;;;2.27;92.94;101108.25;5077996;28;20043;-72
2022/01/07 03:30:28;;;;;;;7.47;3.30;;;;;;;2.19;93.05;101103.66;5077414;28;20434;-72
2022/01/07 03:32:54;;;;;;;9.55;3.40;;;;;;;2.17;93.23;101107.41;5070048;28;20463;-73
2022/01/07 03:35:19;;;;;;;8.98;3.53;;;;;;;2.07;93.62;101104.78;5088974;28;20032;-73
2022/01/07 03:37:45;;;;;;;12.20;4.35;;;;;;;2.03;93.66;101108.63;5089447;28;20028;-72
2022/01/07 03:40:12;;;;;;;7.85;3.80;;;;;;;1.97;94.30;101102.13;5089243;28;20471;-72
2022/01/07 03:42:38;;;;;;;4.72;2.97;;;;;;;1.93;94.70;101097.25;5089035;28;20487;-72
2022/01/07 03:45:06;;;;;;;10.43;4.30;;;;;;;1.88;94.89;101089.75;5089279;28;20411;-72
2022/01/07 03:47:32;;;;;;;13.57;5.28;;;;;;;1.79;94.64;101072.16;5089237;28;20024;-72
2022/01/07 03:49:57;;;;;;;14.57;4.40;;;;;;;1.85;95.55;101081.31;5089216;28;20032;-72
2022/01/07 03:52:23;;;;;;;9.02;4.13;;;;;;;1.84;95.77;101079.66;5089018;28;20486;-72
2022/01/07 03:54:50;;;;;;;11.80;4.50;;;;;;;1.86;95.44;101075.94;5088893;28;20091;-72
2022/01/07 03:57:17;;;;;;;7.43;3.38;;;;;;;1.86;96.32;101077.72;5089360;28;20114;-73
2022/01/07 03:59:42;;;;;;;7.82;3.28;;;;;;;1.86;96.47;101070.69;5076855;28;20506;-72
2022/01/07 04:02:07;;;;;;;7.93;4.07;;;;;;;1.89;96.41;101067.78;5088458;28;20032;-72
2022/01/07 04:04:33;;;;;;;9.50;3.85;;;;;;;1.90;96.78;101063.34;5073187;28;20028;-73
2022/01/07 04:06:58;;;;;;;13.20;4.72;;;;;;;1.92;96.90;101064.03;5069807;28;20029;-72
2022/01/07 04:09:23;;;;;;;13.40;3.75;;;;;;;1.92;96.76;101051.72;5070767;28;20025;-72
2022/01/07 04:11:49;;;;;;;7.30;3.40;;;;;;;1.94;96.79;101046.34;5085780;28;20032;-72
2022/01/07 04:14:14;;;;;;;12.30;3.38;;;;;;;1.95;96.59;101048.81;5093035;28;20356;-72
2022/01/07 04:16:40;;;;;;;9.98;3.83;;;;;;;1.95;96.90;101050.59;5092830;28;20051;-72
2022/01/07 04:19:05;;;;;;;14.80;4.90;;;;;;;1.95;96.79;101054.06;5092917;28;20387;-72
2022/01/07 04:21:30;;;;;;;8.63;4.70;;;;;;;1.95;97.18;101058.50;5093001;28;20111;-72
2022/01/07 04:23:56;;;;;;;7.07;3.60;;;;;;;1.98;96.95;101060.84;5092724;28;20136;-72
2022/01/07 04:26:21;;;;;;;6.75;3.13;;;;;;;1.98;96.69;101050.34;5093044;28;20032;-73
2022/01/07 04:28:46;;;;;;;9.38;3.95;;;;;;;1.99;97.53;101059.88;5092616;28;20492;-72
2022/01/07 04:31:12;;;;;;;8.07;3.90;;;;;;;2.02;97.30;101053.50;5092545;28;20032;-72
2022/01/07 04:33:37;;;;;;;6.88;3.78;;;;;;;2.00;97.37;101045.78;5092539;28;20089;-72
2022/01/07 04:36:03;;;;;;;6.13;3.95;;;;;;;2.04;97.85;101049.78;5092571;28;20024;-72
2022/01/07 04:38:28;;;;;;;7.55;3.85;;;;;;;2.06;97.71;101047.84;5092597;28;20103;-72
2022/01/07 04:40:53;;;;;;;9.82;3.90;;;;;;;2.07;97.82;101048.69;5092318;28;20020;-72
2022/01/07 04:43:19;;;;;;;6.03;3.35;;;;;;;2.10;97.64;101051.06;5091254;28;20157;-73
2022/01/07 04:45:45;;;;;;;8.93;4.53;;;;;;;2.11;97.95;101045.66;5092325;28;20067;-72
2022/01/07 04:48:11;;;;;;;7.13;4.00;;;;;;;2.11;98.29;101040.38;5092361;28;20552;-73
2022/01/07 04:50:37;;;;;;;8.95;3.65;;;;;;;2.12;98.17;101038.56;5092156;28;20032;-73
2022/01/07 04:53:03;;;;;;;11.48;3.78;;;;;;;2.14;97.93;101041.91;5076409;28;20032;-72
2022/01/07 04:55:38;;;;;;;10.10;4.88;;;;;;;2.14;98.25;101041.91;5092183;28;20032;-73
2022/01/07 04:58:09;;;;;;;8.55;3.83;;;;;;;2.14;98.18;101026.13;5092199;28;20024;-72
2022/01/07 05:00:36;;;;;;;8.85;3.88;;;;;;;2.18;98.07;101027.53;5092086;28;20106;-72
2022/01/07 05:03:01;;;;;;;12.80;5.63;;;;;;;2.18;98.29;101036.25;5092115;28;20475;-72
2022/01/07 05:05:26;;;;;;;7.65;4.15;;;;;;;2.21;98.60;101034.31;5092011;28;20035;-73
2022/01/07 05:07:52;;;;;;;8.82;4.68;;;;;;;2.22;98.37;101031.53;5092214;28;20020;-72
2022/01/07 05:10:18;;;;;;;8.77;4.05;;;;;;;2.24;98.49;101034.03;5091993;28;20061;-72
2022/01/07 05:12:43;;;;;;;10.30;4.63;;;;;;;2.28;98.66;101032.78;5084170;28;20109;-72
2022/01/07 05:15:10;;;;;;;8.45;4.82;;;;;;;2.26;98.93;101021.56;5091495;28;20027;-72
2022/01/07 05:17:36;;;;;;;12.27;4.28;;;;;;;2.32;98.78;101023.66;5091697;28;20028;-72
2022/01/07 05:20:03;;;;;;;10.20;5.10;;;;;;;2.31;98.78;101014.09;5079500;28;20032;-72
2022/01/07 05:22:28;;;;;;;9.90;4.50;;;;;;;2.36;98.45;101006.63;5073932;28;20111;-72
2022/01/07 05:24:54;;;;;;;7.93;4.10;;;;;;;2.37;98.61;101009.09;5072101;28;20454;-72
2022/01/07 05:27:19;;;;;;;10.02;4.53;;;;;;;2.32;99.04;100992.88;5072138;28;20668;-73
2022/01/07 05:29:45;;;;;;;10.77;5.20;;;;;;;2.43;98.61;101012.97;5072221;28;20040;-72
2022/01/07 05:32:10;;;;;;;9.45;4.78;;;;;;;2.47;98.55;101008.28;5075544;28;20064;-72
2022/01/07 05:34:36;;;;;;;7.85;4.43;;;;;;;2.46;98.73;101019.75;5091611;28;20023;-72
2022/01/07 05:37:02;;;;;;;9.32;4.95;;;;;;;2.49;98.86;101014.19;5091442;28;20085;-72
2022/01/07 05:39:27;;;;;;;8.48;5.30;;;;;;;2.50;98.96;101014.06;5091440;28;20032;-73
2022/01/07 05:41:53;;;;;;;9.90;6.25;;;;;;;2.53;99.03;101008.53;5091345;28;20048;-72
2022/01/07 05:44:18;;;;;;;8.20;5.00;;;;;;;2.55;99.27;101014.50;5089967;28;20034;-72
2022/01/07 05:46:44;;;;;;;7.65;5.10;;;;;;;2.57;98.93;100996.75;5091260;28;20028;-72
2022/01/07 05:49:09;;;;;;;11.18;5.88;;;;;;;2.56;99.10;100992.44;5090998;28;20375;-73
2022/01/07 05:51:35;;;;;;;13.48;6.75;;;;;;;2.61;99.00;101000.75;5091408;28;20024;-72
2022/01/07 05:54:00;;;;;;;10.25;5.65;;;;;;;2.63;99.05;100988.28;5090982;28;20042;-72
2022/01/07 05:56:26;;;;;;;8.30;4.50;;;;;;;2.66;99.16;100997.69;5089779;28;20032;-72
2022/01/07 05:58:52;;;;;;;13.15;7.63;;;;;;;2.68;99.16;100990.50;5090961;28;20043;-72
2022/01/07 06:01:17;;;;;;;13.38;5.53;;;;;;;2.71;98.98;100995.47;5090981;28;20103;-72
2022/01/07 06:03:43;;;;;;;14.45;5.50;;;;;;;2.67;99.43;100977.47;5091027;28;20056;-72
2022/01/07 06:06:08;;;;;;;9.45;5.85;;;;;;;2.75;99.07;100993.38;5090831;28;20023;-73
2022/01/07 06:08:34;;;;;;;9.07;4.82;;;;;;;2.77;99.25;100991.44;5090837;28;20063;-72
2022/01/07 06:10:59;;;;;;;10.77;5.18;;;;;;;2.80;99.28;100985.88;5089327;28;20040;-72
2022/01/07 06:13:25;;;;;;;11.18;5.63;;;;;;;2.83;98.86;100986.44;5090759;28;20032;-72
2022/01/07 06:15:50;;;;;;;16.13;5.50;;;;;;;2.87;98.68;100991.41;5079151;28;20043;-73
2022/01/07 06:18:16;;;;;;;10.25;5.20;;;;;;;2.88;99.14;100990.44;5090782;28;20548;-72
2022/01/07 06:20:42;;;;;;;13.35;6.20;;;;;;;2.87;99.20;100986.16;5090605;28;20032;-71
2022/01/07 06:23:07;;;;;;;9.05;5.43;;;;;;;2.90;98.60;100991.94;5089434;28;20481;-73
2022/01/07 06:25:32;;;;;;;12.18;5.63;;;;;;;2.91;98.52;100987.50;5090446;28;20555;-73
2022/01/07 06:27:58;;;;;;;12.65;5.55;;;;;;;2.93;99.20;100993.47;5079078;28;20063;-73
2022/01/07 06:30:23;;;;;;;11.07;5.63;;;;;;;2.94;99.18;100997.78;5071041;28;20543;-72
2022/01/07 06:32:49;;;;;;;12.35;5.93;;;;;;;2.93;98.80;100994.28;5071016;28;20036;-72
2022/01/07 06:35:14;;;;;;;14.63;7.03;;;;;;;2.94;98.79;100987.25;5070917;28;20032;-72
2022/01/07 06:37:39;;;;;;;11.77;6.18;;;;;;;2.92;99.28;100990.00;5087778;28;20123;-73
2022/01/07 06:40:06;;;;;;;13.70;5.82;;;;;;;2.96;98.91;100994.03;5084716;28;20032;-73
2022/01/07 06:42:32;;;;;;;11.40;5.43;;;;;;;2.98;98.66;100997.34;5073053;28;20056;-72
2022/01/07 06:44:58;;;;;;;13.13;6.60;;;;;;;2.95;99.04;100984.44;5072486;28;20082;-73
2022/01/07 06:47:24;;;;;;;14.75;6.65;;;;;;;3.02;98.80;100987.34;5089805;28;20035;-72
2022/01/07 06:49:49;;;;;;;9.23;5.43;;;;;;;3.00;99.10;100992.75;5090010;28;20063;-72
2022/01/07 06:52:15;;;;;;;14.52;6.05;;;;;;;3.02;99.24;100993.44;5089908;28;20047;-72
2022/01/07 06:54:40;;;;;;;11.95;6.28;;;;;;;3.05;99.46;100995.78;5090386;28;20096;-72
2022/01/07 06:57:06;;;;;;;9.82;5.30;;;;;;;3.06;98.81;100994.81;5089795;28;20384;-73
2022/01/07 06:59:31;;;;;;;14.35;6.18;;;;;;;3.08;98.72;100992.88;5088464;28;20032;-72
2022/01/07 07:01:56;;;;;;;13.82;7.40;;;;;;;3.11;98.94;101004.09;5089856;28;20032;-73
2022/01/07 07:04:23;;;;;;;13.43;5.80;;;;;;;3.12;99.12;100993.44;5070444;28;20040;-72
2022/01/07 07:06:49;;;;;;;12.77;5.90;;;;;;;3.13;98.93;100999.53;5070294;28;20135;-72
2022/01/07 07:09:16;;;;;;;9.65;5.38;;;;;;;3.14;99.33;100999.34;5070394;28;20024;-72
2022/01/07 07:11:43;;;;;;;14.40;6.57;;;;;;;3.12;99.29;100995.19;5089389;28;20437;-73
2022/01/07 07:14:09;;;;;;;11.02;6.65;;;;;;;3.16;99.15;101007.13;5089614;28;20032;-73
2022/01/07 07:16:34;;;;;;;18.42;7.50;;;;;;;3.20;99.05;101003.25;5087881;28;20024;-72
2022/01/07 07:18:59;;;;;;;15.35;6.35;;;;;;;3.17;98.86;101011.41;5068796;28;20032;-72
2022/01/07 07:21:25;;;;;;;16.05;7.00;;;;;;;3.24;98.81;101012.50;5070047;28;20024;-72
2022/01/07 07:23:50;;;;;;;10.35;6.53;;;;;;;3.26;98.90;101018.47;5070209;28;20434;-72
2022/01/07 07:26:15;;;;;;;12.38;6.03;;;;;;;3.29;98.72;101018.16;5068822;28;20437;-73
2022/01/07 07:28:41;;;;;;;18.48;6.40;;;;;;;3.32;98.72;101014.41;5070080;28;20142;-73
2022/01/07 07:31:11;;;;;;;14.38;6.57;;;;;;;3.31;98.90;101003.06;5089112;28;20170;-73
2022/01/07 07:33:54;;;;;;;13.02;6.40;;;;;;;3.27;98.80;101001.66;5089350;28;20510;-73
2022/01/07 07:36:27;;;;;;;14.63;7.57;;;;;;;3.35;98.91;101007.03;5078374;28;20028;-73
2022/01/07 07:39:14;;;;;;;15.25;6.10;;;;;;;3.39;98.60;101021.59;5089117;28;20031;-73
2022/01/07 07:41:41;;;;;;;14.88;6.50;;;;;;;3.40;98.65;101010.06;5088848;28;20048;-73
2022/01/07 07:44:07;;;;;;;14.77;7.15;;;;;;;3.41;98.81;101005.66;5088826;28;20024;-72
2022/01/07 07:46:34;;;;;;;14.80;7.25;;;;;;;3.41;98.60;101008.28;5069940;28;20048;-73
2022/01/07 07:49:01;;;;;;;14.27;6.03;;;;;;;3.43;98.68;101003.69;5081467;28;20107;-73
2022/01/07 07:51:27;;;;;;;21.25;7.40;;;;;;;3.46;98.88;100998.13;5089106;28;20052;-73
2022/01/07 07:53:53;;;;;;;13.20;6.13;;;;;;;3.48;98.86;101002.28;5089015;28;20032;-73
2022/01/07 07:56:19;;;;;;;16.15;7.53;;;;;;;3.49;98.76;100996.03;5089255;28;20031;-72
2022/01/07 07:58:45;;;;;;;15.77;6.97;;;;;;;3.52;98.91;100994.91;5089134;28;20055;-73
2022/01/07 08:01:12;;;;;;;15.23;8.13;;;;;;;3.55;98.36;100991.13;5086207;28;20541;-73
2022/01/07 08:03:38;;;;;;;17.95;7.38;;;;;;;3.57;98.49;100995.28;5088594;28;20111;-73
2022/01/07 08:06:03;;;;;;;12.40;6.65;;;;;;;3.58;98.48;100988.19;5074840;28;20115;-73
2022/01/07 08:08:28;;;;;;;19.17;7.00;;;;;;;3.60;98.09;100994.16;5069623;28;20028;-73
2022/01/07 08:10:58;;;;;;;15.00;6.95;;;;;;;3.63;98.17;101007.88;5069610;28;20024;-72
2022/01/07 08:13:30;;;;;;;16.65;7.70;;;;;;;3.60;98.60;101002.06;5088967;28;20017;-73
2022/01/07 08:15:58;;;;;;;14.40;6.68;;;;;;;3.67;98.24;101003.16;5089045;28;20124;-72
2022/01/07 08:18:26;;;;;;;15.73;6.95;;;;;;;3.70;98.18;100994.94;5073379;28;20025;-73
2022/01/07 08:20:52;;;;;;;13.95;6.38;;;;;;;3.74;97.95;100998.94;5069665;28;20025;-73
2022/01/07 08:23:18;;;;;;;17.77;6.60;;;;;;;3.78;97.66;100991.56;5088684;28;20032;-72
2022/01/07 08:25:44;;;;;;;14.65;7.00;;;;;;;3.78;97.99;100981.00;5088875;28;20043;-73
2022/01/07 08:28:11;;;;;;;15.25;6.72;;;;;;;3.75;97.96;100979.50;5088779;28;20055;-72
2022/01/07 08:30:48;;;;;;;14.40;6.95;;;;;;;3.78;97.86;100984.47;5088818;28;20051;-72
2022/01/07 08:35:57;;;;;;;14.95;7.95;;;;;;;3.79;97.83;100987.94;5087835;28;20077;-72
2022/01/07 08:38:22;;;;;;;14.23;6.60;;;;;;;3.80;97.76;100993.06;5082742;28;20028;-73
2022/01/07 08:40:47;;;;;;;14.88;8.02;;;;;;;3.83;97.98;100982.22;5069212;28;20098;-71
2022/01/07 08:43:13;;;;;;;13.85;7.13;;;;;;;3.87;97.76;100991.47;5080697;28;20033;-73
2022/01/07 08:45:42;;;;;;;13.52;6.55;;;;;;;3.87;97.31;100993.28;5069419;28;20119;-73
2022/01/07 08:48:07;;;;;;;12.82;7.20;;;;;;;3.89;97.22;100989.53;5074482;28;20067;-73
2022/01/07 08:50:33;;;;;;;13.13;6.55;;;;;;;3.89;97.58;100976.34;5069279;28;20017;-73
2022/01/07 08:53:01;;;;;;;13.25;6.07;;;;;;;3.89;97.67;100984.25;5085194;28;20064;-72
2022/01/07 08:55:26;;;;;;;16.50;7.03;;;;;;;3.91;97.25;100986.75;5088484;28;20430;-73
2022/01/07 08:57:52;;;;;;;13.32;6.03;;;;;;;3.92;97.33;100986.59;5077018;28;20032;-72
2022/01/07 09:00:17;;;;;;;13.52;7.43;;;;;;;3.94;97.34;100984.63;5091153;28;20513;-72
2022/01/07 09:02:42;;;;;;;18.15;6.10;;;;;;;3.97;97.37;100991.41;5091842;28;20103;-73
2022/01/07 09:05:08;;;;;;;12.93;6.35;;;;;;;4.05;96.88;100995.94;5090715;28;20039;-72
2022/01/07 09:07:34;;;;;;;19.60;7.63;;;;;;;4.07;96.86;100992.19;5077136;28;20353;-73
2022/01/07 09:09:59;;;;;;;14.13;7.15;;;;;;;4.08;96.92;101000.91;5076011;28;20372;-74
2022/01/07 09:12:24;;;;;;;12.43;6.18;;;;;;;4.10;96.72;100991.88;5076807;28;20513;-73
2022/01/07 09:14:50;;;;;;;21.92;7.72;;;;;;;4.11;96.85;100992.69;5076684;28;20116;-73
2022/01/07 09:17:15;;;;;;;12.52;6.13;;;;;;;4.10;97.03;100983.94;5076179;28;20048;-72
2022/01/07 09:19:41;;;;;;;19.17;7.63;;;;;;;4.09;96.70;100979.66;5076967;28;20069;-72
2022/01/07 09:22:06;;;;;;;13.80;6.93;;;;;;;4.11;96.64;100988.28;5074539;28;20375;-72
2022/01/07 09:24:31;;;;;;;13.70;6.40;;;;;;;4.14;96.57;100981.84;5075957;28;20044;-72
2022/01/07 09:26:58;;;;;;;15.45;6.93;;;;;;;4.14;96.82;100998.53;5076279;28;20024;-72
2022/01/07 09:29:24;;;;;;;16.38;7.57;;;;;;;4.14;96.61;100995.06;5075605;28;20574;-72
2022/01/07 09:31:51;;;;;;;15.25;6.95;;;;;;;4.06;96.63;100984.41;5076326;28;20082;-71
2022/01/07 09:34:17;;;;;;;16.33;7.70;;;;;;;4.12;96.59;100997.00;5075814;28;20475;-73
2022/01/07 09:36:42;;;;;;;15.88;6.25;;;;;;;4.14;96.75;100993.25;5073443;28;20063;-72
2022/01/07 09:39:07;;;;;;;19.95;5.80;;;;;;;4.24;96.87;101001.06;5072143;28;20400;-72
2022/01/07 09:41:33;;;;;;;12.80;6.65;;;;;;;4.34;96.58;100996.53;5071871;28;20044;-72
2022/01/07 09:44:01;;;;;;;15.18;7.30;;;;;;;4.42;96.28;100997.59;5073556;28;20542;-71
2022/01/07 09:46:26;;;;;;;20.73;8.35;;;;;;;4.48;95.82;100986.41;5091381;28;20119;-72
2022/01/07 09:48:52;;;;;;;14.95;6.32;;;;;;;4.59;95.89;100980.91;5091292;28;20103;-72
2022/01/07 09:51:17;;;;;;;13.95;6.30;;;;;;;4.71;95.26;100977.00;5091177;28;20070;-72
2022/01/07 09:53:43;;;;;;;10.57;5.18;;;;;;;4.76;95.06;100972.06;5089627;28;20028;-72
2022/01/07 09:56:08;;;;;;;15.57;6.63;;;;;;;4.88;94.89;100979.75;5090937;28;20078;-72
2022/01/07 09:58:34;;;;;;;13.40;6.13;;;;;;;4.89;94.82;100974.31;5090977;28;20034;-73
2022/01/07 10:01:02;;;;;;;14.30;6.68;;;;;;;4.92;94.73;100975.81;5091047;28;20020;-72
2022/01/07 10:03:43;;;;;;;10.57;5.60;;;;;;;4.94;93.90;100971.19;5091079;28;20028;-72
2022/01/07 10:06:15;;;;;;;9.25;5.32;;;;;;;4.97;93.55;100987.56;5090914;28;20052;-72
2022/01/07 10:08:40;;;;;;;15.75;6.43;;;;;;;4.95;93.71;100978.97;5089231;28;20043;-72
2022/01/07 10:11:16;;;;;;;11.40;5.35;;;;;;;4.91;94.05;100971.50;5089172;28;20028;-72
2022/01/07 10:13:43;;;;;;;11.73;5.97;;;;;;;4.98;93.50;100964.63;5089292;28;20378;-72
2022/01/07 10:16:16;;;;;;;11.30;5.40;;;;;;;4.94;93.18;100971.19;5090545;28;20089;-73
2022/01/07 10:18:42;;;;;;;14.10;6.32;;;;;;;4.95;93.33;100972.84;5090617;28;20433;-73
2022/01/07 10:21:10;;;;;;;10.02;4.88;;;;;;;5.01;93.41;100964.31;5090568;28;20031;-72
2022/01/07 10:23:36;;;;;;;9.73;5.38;;;;;;;5.07;93.42;100970.78;5090612;28;20028;-72
2022/01/07 10:26:01;;;;;;;10.95;5.75;;;;;;;5.14;92.98;100967.34;5090596;28;20030;-72
2022/01/07 10:28:32;;;;;;;8.63;4.97;;;;;;;5.14;91.72;100961.22;5090543;28;20115;-72
2022/01/07 10:31:00;;;;;;;13.85;6.35;;;;;;;5.14;91.93;100959.41;5090343;28;20509;-72
2022/01/07 10:33:25;;;;;;;11.35;5.13;;;;;;;5.15;92.50;100966.34;5090461;28;20028;-73
2022/01/07 10:35:53;;;;;;;9.18;4.72;;;;;;;5.18;91.70;100963.38;5077357;28;20073;-71
2022/01/07 10:38:25;;;;;;;10.15;4.45;;;;;;;5.22;92.22;100961.25;5074601;28;20103;-73
2022/01/07 10:40:53;;;;;;;11.30;5.93;;;;;;;5.24;91.87;100944.25;5074485;28;20024;-72
2022/01/07 10:43:20;;;;;;;11.63;4.78;;;;;;;5.32;92.05;100950.53;5073022;28;20415;-73
2022/01/07 10:45:51;;;;;;;9.10;5.18;;;;;;;5.35;91.66;100952.88;5073644;28;20028;-71
2022/01/07 10:48:18;;;;;;;10.23;4.68;;;;;;;5.38;91.58;100961.31;5074759;28;20101;-71
2022/01/07 10:50:51;;;;;;;8.50;4.45;;;;;;;5.39;91.43;100933.03;5073524;28;20035;-71
2022/01/07 10:53:17;;;;;;;10.93;5.15;;;;;;;5.35;91.16;100943.13;5073844;28;20035;-72
2022/01/07 10:56:00;;;;;;;8.90;4.65;;;;;;;5.30;90.97;100934.84;5074829;28;20024;-71
2022/01/07 10:58:26;;;;;;;11.15;5.00;;;;;;;5.36;91.58;100938.66;5075393;28;20031;-70
2022/01/07 11:00:52;;;;;;;12.05;4.47;;;;;;;5.43;91.42;100927.28;5077983;28;20166;-71
2022/01/07 11:03:17;;;;;;;11.23;4.40;;;;;;;5.55;90.86;100935.72;5089957;28;20115;-73
2022/01/07 11:05:43;;;;;;;12.38;4.45;;;;;;;5.59;90.71;100928.31;5089696;28;20025;-71
2022/01/07 11:08:08;;;;;;;9.50;4.30;;;;;;;5.68;89.98;100925.50;5089698;28;20044;-71
2022/01/07 11:10:36;;;;;;;7.20;3.60;;;;;;;5.73;89.77;100914.44;5089579;28;20031;-70
2022/01/07 11:13:02;;;;;;;6.95;4.25;;;;;;;5.84;89.18;100922.09;5089703;28;20028;-70
2022/01/07 11:15:28;;;;;;;7.55;3.75;;;;;;;5.85;88.85;100921.06;5089630;28;20036;-70
2022/01/07 11:17:53;;;;;;;11.98;5.03;;;;;;;5.94;88.77;100921.94;5089704;28;20028;-69
2022/01/07 11:20:24;;;;;;;12.18;4.20;;;;;;;6.03;88.59;100922.78;5088941;28;20641;-71
2022/01/07 11:22:51;;;;;;;14.77;4.33;;;;;;;6.08;88.29;100918.66;5089480;28;20127;-70
2022/01/07 11:25:17;;;;;;;10.43;3.85;;;;;;;6.19;88.32;100930.72;5089556;28;20479;-71
2022/01/07 11:27:50;;;;;;;13.82;4.47;;;;;;;6.19;87.77;100928.06;5089593;28;20032;-70